createdAt,value
2018-10-09T00:01:56.338Z,21.00
2018-10-09T00:04:25.056Z,20.90
2018-10-09T00:06:53.768Z,20.90
2018-10-09T00:09:22.484Z,21.00
2018-10-09T00:11:51.197Z,20.90
2018-10-09T00:14:19.921Z,21.00
2018-10-09T00:16:48.628Z,20.90
2018-10-09T00:19:17.335Z,20.90
2018-10-09T00:21:46.044Z,20.80
2018-10-09T00:24:14.752Z,20.80
2018-10-09T00:26:43.528Z,20.80
2018-10-09T00:29:12.241Z,20.80
2018-10-09T00:31:40.956Z,20.80
2018-10-09T00:34:09.659Z,20.80
2018-10-09T00:36:38.423Z,20.80
2018-10-09T00:39:08.399Z,20.80
2018-10-09T00:41:37.760Z,20.80
2018-10-09T00:44:06.579Z,20.80
2018-10-09T00:46:35.291Z,20.80
2018-10-09T00:49:04.038Z,20.80
2018-10-09T00:51:32.743Z,20.80
2018-10-09T00:54:01.463Z,20.80
2018-10-09T00:56:30.159Z,20.90
2018-10-09T00:58:58.884Z,20.90
2018-10-09T01:01:27.592Z,20.80
2018-10-09T01:03:56.303Z,20.80
2018-10-09T01:06:25.015Z,20.80
2018-10-09T01:08:53.725Z,20.80
2018-10-09T01:11:22.433Z,20.80
2018-10-09T01:13:51.154Z,20.80
2018-10-09T01:16:19.863Z,20.80
2018-10-09T01:18:48.568Z,20.80
2018-10-09T01:21:17.283Z,20.80
2018-10-09T01:23:45.987Z,20.80
2018-10-09T01:26:14.727Z,20.80
2018-10-09T01:28:43.435Z,20.80
2018-10-09T01:31:12.144Z,20.80
2018-10-09T01:33:40.851Z,20.80
2018-10-09T01:36:09.598Z,20.80
2018-10-09T01:38:38.296Z,20.80
2018-10-09T01:41:07.027Z,20.80
2018-10-09T01:43:35.743Z,20.80
2018-10-09T01:46:04.453Z,20.80
2018-10-09T01:48:33.152Z,20.80
2018-10-09T01:51:01.908Z,20.80
2018-10-09T01:53:30.616Z,20.80
2018-10-09T01:55:59.319Z,20.70
2018-10-09T01:58:28.016Z,20.70
2018-10-09T02:00:56.731Z,20.70
2018-10-09T02:03:25.440Z,20.70
2018-10-09T02:05:54.152Z,20.70
2018-10-09T02:08:22.859Z,20.70
2018-10-09T02:10:51.588Z,20.70
2018-10-09T02:13:20.284Z,20.70
2018-10-09T02:15:48.999Z,20.60
2018-10-09T02:18:17.704Z,20.60
2018-10-09T02:20:46.412Z,20.60
2018-10-09T02:23:15.116Z,20.70
2018-10-09T02:25:43.841Z,20.70
2018-10-09T02:28:12.550Z,20.60
2018-10-09T02:30:41.252Z,20.60
2018-10-09T02:33:09.967Z,20.60
2018-10-09T02:35:38.873Z,20.60
2018-10-09T02:38:07.584Z,20.60
2018-10-09T02:40:36.287Z,20.60
2018-10-09T02:43:04.992Z,20.60
2018-10-09T02:45:33.704Z,20.60
2018-10-09T02:48:02.451Z,20.60
2018-10-09T02:50:31.396Z,20.50
2018-10-09T02:53:00.060Z,20.60
2018-10-09T02:55:28.784Z,20.50
2018-10-09T02:57:57.484Z,20.50
2018-10-09T03:00:26.200Z,20.50
2018-10-09T03:02:54.914Z,20.50
2018-10-09T03:05:23.627Z,20.50
2018-10-09T03:07:52.328Z,20.60
2018-10-09T03:10:21.048Z,20.60
2018-10-09T03:12:49.793Z,20.50
2018-10-09T03:15:18.486Z,20.50
2018-10-09T03:17:47.196Z,20.50
2018-10-09T03:20:15.936Z,20.60
2018-10-09T03:22:44.651Z,20.60
2018-10-09T03:25:13.355Z,20.60
2018-10-09T03:27:42.063Z,20.60
2018-10-09T03:30:11.673Z,20.60
2018-10-09T03:32:40.379Z,20.60
2018-10-09T03:35:09.084Z,20.60
2018-10-09T03:37:37.945Z,20.50
2018-10-09T03:40:06.676Z,20.40
2018-10-09T03:42:35.395Z,20.30
2018-10-09T03:45:04.112Z,20.30
2018-10-09T03:47:32.998Z,20.30
2018-10-09T03:50:01.719Z,20.30
2018-10-09T03:52:30.439Z,20.30
2018-10-09T03:54:59.143Z,20.40
2018-10-09T03:57:27.847Z,20.30
2018-10-09T03:59:56.551Z,20.40
2018-10-09T04:02:25.263Z,20.40
2018-10-09T04:04:53.979Z,20.40
2018-10-09T04:07:22.991Z,20.40
2018-10-09T04:09:51.712Z,20.40
2018-10-09T04:12:20.412Z,20.40
2018-10-09T04:14:49.151Z,20.40
2018-10-09T04:17:17.856Z,20.40
2018-10-09T04:19:46.556Z,20.40
2018-10-09T04:22:20.299Z,20.40
2018-10-09T04:24:49.120Z,20.40
2018-10-09T04:27:18.224Z,20.40
2018-10-09T04:29:47.011Z,20.40
2018-10-09T04:32:15.716Z,20.40
2018-10-09T04:34:44.483Z,20.40
2018-10-09T04:37:13.228Z,20.30
2018-10-09T04:39:41.944Z,20.30
2018-10-09T04:42:10.660Z,20.40
2018-10-09T04:44:39.360Z,20.40
2018-10-09T04:47:08.080Z,20.30
2018-10-09T04:49:36.804Z,20.40
2018-10-09T04:52:05.527Z,20.40
2018-10-09T04:54:34.235Z,20.40
2018-10-09T04:57:02.999Z,20.30
2018-10-09T04:59:31.735Z,20.30
2018-10-09T05:02:00.447Z,20.30
2018-10-09T05:04:29.163Z,20.40
2018-10-09T05:06:57.880Z,20.30
2018-10-09T05:09:26.580Z,20.30
2018-10-09T05:11:55.324Z,20.30
2018-10-09T05:14:24.031Z,20.30
2018-10-09T05:16:52.735Z,20.40
2018-10-09T05:19:21.448Z,20.30
2018-10-09T05:21:50.160Z,20.40
2018-10-09T05:24:18.869Z,20.40
2018-10-09T05:26:47.576Z,20.40
2018-10-09T05:29:16.304Z,20.30
2018-10-09T05:31:45.010Z,20.30
2018-10-09T05:34:13.719Z,20.30
2018-10-09T05:36:42.435Z,20.30
2018-10-09T05:39:11.144Z,20.30
2018-10-09T05:41:39.844Z,20.30
2018-10-09T05:44:08.567Z,20.30
2018-10-09T05:46:37.267Z,20.40
2018-10-09T05:49:06.044Z,20.40
2018-10-09T05:51:34.743Z,20.30
2018-10-09T05:54:03.455Z,20.30
2018-10-09T05:56:32.171Z,20.40
2018-10-09T05:59:00.887Z,20.40
2018-10-09T06:01:29.629Z,20.30
2018-10-09T06:03:58.344Z,20.30
2018-10-09T06:06:27.039Z,19.10
2018-10-09T06:08:55.747Z,18.10
2018-10-09T06:11:24.459Z,17.60
2018-10-09T06:13:53.172Z,17.10
2018-10-09T06:16:21.888Z,16.50
2018-10-09T06:18:50.601Z,16.60
2018-10-09T06:21:19.308Z,16.50
2018-10-09T06:23:48.060Z,16.30
2018-10-09T06:26:16.731Z,16.40
2018-10-09T06:28:45.588Z,16.40
2018-10-09T06:31:14.295Z,16.70
2018-10-09T06:33:43.004Z,16.60
2018-10-09T06:36:11.724Z,16.40
2018-10-09T06:38:40.477Z,15.90
2018-10-09T06:41:09.222Z,15.90
2018-10-09T06:43:37.907Z,15.70
2018-10-09T06:46:06.624Z,15.80
2018-10-09T06:48:35.327Z,16.10
2018-10-09T06:51:04.059Z,16.20
2018-10-09T06:53:32.834Z,16.20
2018-10-09T06:56:01.480Z,16.20
2018-10-09T06:58:30.215Z,16.20
2018-10-09T07:00:58.928Z,16.40
2018-10-09T07:03:27.628Z,16.40
2018-10-09T07:05:56.349Z,16.40
2018-10-09T07:08:25.061Z,16.40
2018-10-09T07:10:53.804Z,16.40
2018-10-09T07:13:22.481Z,16.40
2018-10-09T07:15:51.193Z,16.70
2018-10-09T07:18:19.907Z,16.60
2018-10-09T07:20:48.616Z,16.60
2018-10-09T07:23:17.322Z,16.70
2018-10-09T07:25:46.038Z,16.60
2018-10-09T07:28:14.780Z,16.50
2018-10-09T07:30:43.497Z,16.60
2018-10-09T07:33:12.209Z,16.30
2018-10-09T07:35:42.544Z,16.60
2018-10-09T07:38:11.256Z,16.10
2018-10-09T07:40:39.968Z,16.50
2018-10-09T07:43:08.675Z,16.30
2018-10-09T07:45:37.388Z,16.00
2018-10-09T07:48:06.088Z,15.50
2018-10-09T07:50:34.816Z,15.30
2018-10-09T07:53:03.524Z,14.70
2018-10-09T07:55:32.239Z,14.80
2018-10-09T07:58:00.962Z,15.00
2018-10-09T08:00:29.660Z,15.60
2018-10-09T08:02:58.375Z,15.50
2018-10-09T08:05:27.079Z,15.60
2018-10-09T08:07:55.796Z,15.30
2018-10-09T08:10:24.542Z,15.90
2018-10-09T08:12:53.220Z,15.70
2018-10-09T08:15:21.993Z,15.50
2018-10-09T08:17:50.692Z,15.50
2018-10-09T08:20:19.401Z,15.30
2018-10-09T08:22:48.134Z,15.90
2018-10-09T08:25:16.811Z,16.50
2018-10-09T08:27:45.524Z,16.90
2018-10-09T08:30:14.223Z,16.70
2018-10-09T08:32:42.933Z,16.50
2018-10-09T08:35:11.668Z,17.10
2018-10-09T08:37:40.387Z,17.60
2018-10-09T08:40:09.182Z,17.70
2018-10-09T08:42:37.848Z,17.00
2018-10-09T08:45:06.688Z,16.20
2018-10-09T08:47:35.408Z,16.30
2018-10-09T08:50:04.305Z,16.50
2018-10-09T08:52:33.021Z,16.70
2018-10-09T08:55:01.736Z,16.90
2018-10-09T08:57:30.490Z,16.90
2018-10-09T08:59:59.158Z,16.70
2018-10-09T09:02:27.872Z,16.70
2018-10-09T09:04:56.613Z,16.70
2018-10-09T09:07:25.332Z,16.80
2018-10-09T09:09:54.040Z,16.70
2018-10-09T09:12:22.777Z,17.00
2018-10-09T09:14:51.492Z,17.40
2018-10-09T09:17:20.209Z,17.90
2018-10-09T09:19:48.916Z,18.00
2018-10-09T09:22:17.619Z,18.20
2018-10-09T09:24:46.335Z,18.50
2018-10-09T09:27:15.271Z,18.60
2018-10-09T09:29:43.795Z,18.70
2018-10-09T09:32:12.535Z,18.70
2018-10-09T09:34:41.229Z,19.00
2018-10-09T09:37:09.936Z,19.20
2018-10-09T09:39:38.652Z,19.40
2018-10-09T09:42:07.367Z,19.50
2018-10-09T09:44:36.088Z,19.80
2018-10-09T09:47:04.807Z,20.10
2018-10-09T09:49:33.521Z,20.20
2018-10-09T09:52:02.281Z,20.00
2018-10-09T09:54:30.968Z,19.50
2018-10-09T09:56:59.685Z,19.30
2018-10-09T09:59:28.408Z,19.30
2018-10-09T10:01:57.116Z,19.20
2018-10-09T10:04:26.555Z,19.40
2018-10-09T10:06:55.256Z,19.80
2018-10-09T10:09:24.014Z,19.80
2018-10-09T10:11:52.743Z,20.00
2018-10-09T10:14:21.464Z,20.00
2018-10-09T10:16:50.448Z,20.00
2018-10-09T10:19:19.148Z,20.20
2018-10-09T10:21:47.862Z,20.30
2018-10-09T10:24:16.584Z,20.40
2018-10-09T10:26:45.296Z,20.40
2018-10-09T10:29:14.100Z,20.40
2018-10-09T10:31:42.739Z,20.60
2018-10-09T10:34:11.460Z,20.70
2018-10-09T10:36:40.218Z,20.80
2018-10-09T10:39:10.308Z,21.00
2018-10-09T10:41:39.015Z,20.90
2018-10-09T10:44:07.732Z,20.90
2018-10-09T10:46:38.700Z,21.10
2018-10-09T10:49:09.517Z,21.00
2018-10-09T10:51:38.324Z,21.00
2018-10-09T10:54:07.216Z,20.80
2018-10-09T10:56:36.313Z,20.70
2018-10-09T10:59:05.207Z,20.80
2018-10-09T11:01:34.034Z,20.60
2018-10-09T11:04:02.859Z,20.40
2018-10-09T11:06:31.566Z,20.40
2018-10-09T11:09:00.270Z,20.60
2018-10-09T11:11:28.996Z,20.60
2018-10-09T11:13:57.712Z,20.50
2018-10-09T11:16:26.424Z,20.30
2018-10-09T11:18:55.153Z,20.20
2018-10-09T11:21:24.020Z,20.10
2018-10-09T11:23:52.583Z,20.00
2018-10-09T11:26:21.301Z,20.10
2018-10-09T11:28:50.023Z,20.10
2018-10-09T11:31:18.764Z,20.30
2018-10-09T11:33:47.477Z,20.30
2018-10-09T11:36:16.185Z,20.30
2018-10-09T11:38:44.893Z,20.30
2018-10-09T11:41:13.631Z,20.30
2018-10-09T11:43:42.352Z,20.30
2018-10-09T11:46:11.068Z,20.30
2018-10-09T11:48:39.801Z,20.20
2018-10-09T11:51:08.508Z,20.30
2018-10-09T11:53:37.215Z,20.30
2018-10-09T11:56:06.005Z,20.30
2018-10-09T11:58:34.765Z,20.30
2018-10-09T12:01:06.563Z,20.30
2018-10-09T12:03:35.759Z,20.30
2018-10-09T12:06:04.659Z,20.40
2018-10-09T12:08:33.487Z,20.40
2018-10-09T12:11:02.602Z,20.40
2018-10-09T12:13:31.391Z,20.20
2018-10-09T12:16:00.163Z,20.20
2018-10-09T12:18:28.859Z,20.30
2018-10-09T12:20:57.581Z,20.30
2018-10-09T12:23:26.304Z,20.30
2018-10-09T12:25:55.044Z,20.20
2018-10-09T12:28:23.764Z,20.20
2018-10-09T12:30:52.519Z,20.20
2018-10-09T12:33:21.233Z,20.20
2018-10-09T12:35:49.936Z,20.20
2018-10-09T12:38:18.696Z,20.20
2018-10-09T12:40:47.480Z,20.40
2018-10-09T12:43:16.177Z,20.50
2018-10-09T12:45:44.872Z,20.60
2018-10-09T12:48:14.188Z,20.50
2018-10-09T12:50:42.888Z,20.60
2018-10-09T12:53:11.583Z,20.60
2018-10-09T12:55:40.284Z,20.40
2018-10-09T12:58:08.960Z,20.40
2018-10-09T13:00:37.664Z,20.40
2018-10-09T13:03:06.400Z,20.40
2018-10-09T13:05:35.081Z,20.40
2018-10-09T13:08:03.768Z,20.20
2018-10-09T13:10:32.473Z,20.30
2018-10-09T13:13:01.181Z,20.20
2018-10-09T13:15:29.904Z,20.30
2018-10-09T13:17:58.600Z,20.30
2018-10-09T13:20:27.308Z,20.40
2018-10-09T13:22:56.154Z,20.30
2018-10-09T13:25:24.968Z,20.30
2018-10-09T13:27:53.765Z,20.30
2018-10-09T13:30:22.460Z,20.20
2018-10-09T13:32:51.144Z,20.20
2018-10-09T13:35:19.836Z,20.20
2018-10-09T13:37:48.520Z,20.20
2018-10-09T13:40:17.224Z,20.20
2018-10-09T13:42:46.165Z,20.10
2018-10-09T13:45:14.872Z,20.30
2018-10-09T13:47:43.595Z,20.30
2018-10-09T13:50:12.313Z,20.20
2018-10-09T13:52:41.000Z,20.30
2018-10-09T13:55:09.732Z,20.30
2018-10-09T13:57:39.721Z,20.30
2018-10-09T14:00:08.408Z,20.40
2018-10-09T14:02:37.105Z,20.30
2018-10-09T14:05:05.849Z,20.10
2018-10-09T14:07:34.540Z,20.10
2018-10-09T14:10:03.254Z,19.90
2018-10-09T14:12:31.943Z,20.00
2018-10-09T14:15:00.713Z,20.00
2018-10-09T14:17:29.384Z,20.00
2018-10-09T14:19:58.076Z,20.00
2018-10-09T14:22:26.819Z,20.10
2018-10-09T14:24:55.488Z,20.10
2018-10-09T14:27:24.196Z,20.00
2018-10-09T14:29:52.889Z,20.00
2018-10-09T14:32:21.581Z,20.00
2018-10-09T14:34:50.308Z,20.00
2018-10-09T14:37:19.056Z,20.20
2018-10-09T14:39:47.780Z,20.10
2018-10-09T14:42:16.788Z,20.00
2018-10-09T14:44:45.484Z,20.00
2018-10-09T14:47:14.381Z,20.10
2018-10-09T14:49:43.060Z,20.20
2018-10-09T14:52:11.769Z,20.20
2018-10-09T14:54:40.462Z,20.00
2018-10-09T14:57:09.171Z,20.10
2018-10-09T14:59:37.857Z,20.00
2018-10-09T15:02:06.896Z,20.00
2018-10-09T15:04:35.601Z,20.00
2018-10-09T15:07:04.319Z,20.00
2018-10-09T15:09:33.053Z,20.10
2018-10-09T15:12:01.808Z,20.00
2018-10-09T15:14:30.517Z,20.10
2018-10-09T15:16:59.306Z,20.10
2018-10-09T15:19:27.972Z,19.90
2018-10-09T15:21:56.762Z,19.90
2018-10-09T15:24:25.468Z,19.90
2018-10-09T15:26:54.164Z,19.80
2018-10-09T15:29:24.539Z,19.70
2018-10-09T15:31:53.661Z,19.70
2018-10-09T15:34:22.352Z,19.70
2018-10-09T15:36:51.057Z,19.60
2018-10-09T15:39:19.772Z,19.60
2018-10-09T15:41:48.714Z,19.50
2018-10-09T15:44:17.468Z,19.50
2018-10-09T15:46:46.188Z,19.50
2018-10-09T15:49:18.947Z,19.60
2018-10-09T15:51:47.611Z,19.70
2018-10-09T15:54:16.301Z,19.60
2018-10-09T15:56:45.164Z,19.40
2018-10-09T15:59:15.712Z,19.40
2018-10-09T16:01:44.381Z,19.30
2018-10-09T16:04:13.105Z,19.20
2018-10-09T16:06:41.772Z,19.30
2018-10-09T16:09:11.268Z,19.30
2018-10-09T16:11:39.984Z,19.30
2018-10-09T16:14:08.700Z,19.20
2018-10-09T16:16:37.432Z,19.20
2018-10-09T16:19:06.475Z,19.10
2018-10-09T16:21:35.163Z,19.00
2018-10-09T16:24:04.081Z,18.90
2018-10-09T16:26:32.781Z,18.90
2018-10-09T16:29:01.486Z,18.90
2018-10-09T16:31:30.177Z,18.90
2018-10-09T16:33:58.872Z,18.80
2018-10-09T16:36:27.593Z,18.70
2018-10-09T16:38:56.304Z,18.70
2018-10-09T16:41:24.997Z,18.60
2018-10-09T16:43:53.736Z,18.60
2018-10-09T16:46:22.430Z,18.50
2018-10-09T16:48:51.125Z,18.40
2018-10-09T16:51:19.953Z,18.50
2018-10-09T16:53:48.656Z,18.50
2018-10-09T16:56:17.364Z,18.50
2018-10-09T16:58:46.980Z,18.40
2018-10-09T17:01:15.670Z,18.30
2018-10-09T17:03:44.376Z,18.20
2018-10-09T17:06:13.071Z,18.90
2018-10-09T17:08:41.816Z,19.50
2018-10-09T17:11:10.523Z,19.90
2018-10-09T17:13:39.220Z,20.10
2018-10-09T17:16:08.024Z,20.30
2018-10-09T17:18:36.733Z,20.40
2018-10-09T17:21:05.498Z,20.50
2018-10-09T17:23:34.408Z,20.50
2018-10-09T17:26:03.125Z,20.60
2018-10-09T17:28:31.943Z,20.60
2018-10-09T17:31:00.540Z,20.70
2018-10-09T17:33:29.271Z,20.70
2018-10-09T17:35:57.950Z,20.70
2018-10-09T17:38:26.644Z,20.80
2018-10-09T17:40:55.352Z,20.80
2018-10-09T17:43:24.052Z,20.80
2018-10-09T17:45:52.741Z,20.80
2018-10-09T17:48:21.440Z,20.90
2018-10-09T17:50:50.128Z,20.90
2018-10-09T17:53:18.821Z,20.90
2018-10-09T17:55:47.528Z,20.90
2018-10-09T17:58:16.225Z,21.00
2018-10-09T18:00:44.936Z,21.10
2018-10-09T18:03:14.240Z,21.10
2018-10-09T18:05:42.889Z,21.10
2018-10-09T18:08:11.618Z,21.20
2018-10-09T18:10:40.326Z,21.20
2018-10-09T18:13:09.157Z,21.20
2018-10-09T18:15:37.859Z,21.20
2018-10-09T18:18:06.732Z,21.20
2018-10-09T18:20:35.431Z,21.20
2018-10-09T18:23:04.116Z,21.20
2018-10-09T18:25:32.816Z,21.20
2018-10-09T18:28:01.512Z,21.20
2018-10-09T18:30:30.208Z,21.20
2018-10-09T18:32:58.977Z,21.20
2018-10-09T18:35:27.602Z,21.20
2018-10-09T18:37:56.313Z,21.20
2018-10-09T18:40:25.010Z,21.20
2018-10-09T18:42:53.703Z,21.20
2018-10-09T18:45:22.409Z,21.20
2018-10-09T18:47:51.112Z,21.20
2018-10-09T18:50:19.801Z,21.20
2018-10-09T18:52:48.492Z,21.20
2018-10-09T18:55:17.863Z,21.20
2018-10-09T18:57:46.736Z,21.20
2018-10-09T19:00:15.632Z,21.20
2018-10-09T19:02:44.329Z,21.20
2018-10-09T19:05:13.066Z,21.20
2018-10-09T19:07:41.756Z,21.20
2018-10-09T19:10:10.697Z,21.20
2018-10-09T19:12:44.620Z,21.20
2018-10-09T19:15:13.376Z,21.30
2018-10-09T19:17:42.087Z,21.30
2018-10-09T19:20:10.844Z,21.30
2018-10-09T19:22:39.499Z,21.30
2018-10-09T19:25:08.440Z,21.30
2018-10-09T19:27:37.136Z,21.20
2018-10-09T19:30:06.274Z,21.20
2018-10-09T19:32:35.028Z,21.20
2018-10-09T19:35:03.685Z,21.10
2018-10-09T19:37:32.380Z,21.10
2018-10-09T19:40:01.084Z,21.10
2018-10-09T19:42:29.775Z,21.10
2018-10-09T19:44:58.484Z,21.00
2018-10-09T19:47:27.183Z,21.00
2018-10-09T19:49:55.880Z,21.00
2018-10-09T19:52:24.580Z,21.10
2018-10-09T19:54:53.276Z,21.10
2018-10-09T19:57:21.980Z,21.20
2018-10-09T19:59:50.684Z,21.20
2018-10-09T20:02:19.392Z,21.20
2018-10-09T20:04:48.092Z,21.20
2018-10-09T20:07:16.796Z,21.20
2018-10-09T20:09:45.484Z,21.30
2018-10-09T20:12:14.216Z,21.30
2018-10-09T20:14:43.164Z,21.30
2018-10-09T20:17:11.871Z,21.30
2018-10-09T20:19:40.560Z,21.30
2018-10-09T20:22:10.475Z,21.30
2018-10-09T20:24:39.400Z,21.30
2018-10-09T20:27:08.064Z,21.30
2018-10-09T20:29:36.753Z,21.30
2018-10-09T20:32:05.461Z,21.30
2018-10-09T20:34:34.167Z,21.30
2018-10-09T20:37:02.861Z,21.30
2018-10-09T20:39:31.556Z,21.20
2018-10-09T20:42:00.357Z,21.10
2018-10-09T20:44:28.985Z,20.90
2018-10-09T20:46:57.688Z,20.90
2018-10-09T20:49:26.387Z,20.90
2018-10-09T20:51:55.083Z,20.80
2018-10-09T20:54:23.795Z,20.80
2018-10-09T20:56:52.521Z,20.80
2018-10-09T20:59:21.228Z,20.80
2018-10-09T21:01:49.921Z,20.80
2018-10-09T21:04:18.624Z,20.80
2018-10-09T21:06:47.331Z,20.90
2018-10-09T21:09:16.069Z,21.00
2018-10-09T21:11:44.772Z,21.10
2018-10-09T21:14:13.464Z,21.10
2018-10-09T21:16:42.196Z,21.10
2018-10-09T21:19:10.886Z,21.20
2018-10-09T21:21:39.584Z,21.20
2018-10-09T21:24:08.295Z,21.20
2018-10-09T21:26:36.984Z,21.20
2018-10-09T21:29:05.864Z,21.20
2018-10-09T21:31:34.584Z,21.20
2018-10-09T21:34:03.277Z,21.20
2018-10-09T21:36:32.062Z,21.20
2018-10-09T21:39:00.676Z,21.20
2018-10-09T21:41:29.369Z,21.10
2018-10-09T21:43:58.055Z,21.10
2018-10-09T21:46:26.761Z,21.10
2018-10-09T21:48:55.459Z,21.10
2018-10-09T21:51:24.154Z,21.10
2018-10-09T21:53:52.877Z,21.10
2018-10-09T21:56:21.592Z,21.10
2018-10-09T21:58:50.289Z,21.10
2018-10-09T22:01:18.984Z,21.10
2018-10-09T22:03:47.685Z,21.10
2018-10-09T22:06:16.378Z,21.10
2018-10-09T22:08:45.081Z,21.10
2018-10-09T22:11:13.792Z,21.10
2018-10-09T22:13:42.492Z,21.10
2018-10-09T22:16:11.369Z,21.10
2018-10-09T22:18:40.267Z,21.10
2018-10-09T22:21:08.952Z,21.00
2018-10-09T22:23:37.655Z,21.10
2018-10-09T22:26:06.414Z,21.10
2018-10-09T22:28:35.107Z,21.10
2018-10-09T22:31:03.800Z,21.00
2018-10-09T22:33:32.497Z,21.00
2018-10-09T22:36:01.189Z,21.00
2018-10-09T22:38:29.923Z,21.00
2018-10-09T22:40:58.576Z,21.00
2018-10-09T22:43:27.272Z,21.00
2018-10-09T22:45:55.974Z,21.00
2018-10-09T22:48:24.679Z,21.00
2018-10-09T22:50:53.376Z,21.00
2018-10-09T22:53:22.088Z,21.00
2018-10-09T22:55:50.785Z,21.00
2018-10-09T22:58:19.484Z,21.00
2018-10-09T23:00:48.177Z,21.00
2018-10-09T23:03:16.941Z,21.00
2018-10-09T23:05:45.632Z,21.00
2018-10-09T23:08:14.453Z,21.00
2018-10-09T23:10:43.184Z,20.90
2018-10-09T23:13:11.888Z,20.90
2018-10-09T23:15:40.568Z,20.90
2018-10-09T23:18:09.269Z,20.90
2018-10-09T23:20:37.966Z,20.90
2018-10-09T23:23:06.656Z,20.90
2018-10-09T23:25:35.347Z,20.90
2018-10-09T23:28:04.058Z,20.90
2018-10-09T23:30:32.756Z,20.90
2018-10-09T23:33:01.451Z,20.90
2018-10-09T23:35:30.156Z,20.90
2018-10-09T23:37:58.860Z,20.90
2018-10-09T23:40:27.553Z,20.90
2018-10-09T23:42:56.303Z,20.90
2018-10-09T23:45:24.945Z,20.90
2018-10-09T23:47:59.173Z,20.90
2018-10-09T23:50:27.881Z,20.90
2018-10-09T23:52:56.568Z,20.90
2018-10-09T23:55:25.393Z,20.90
2018-10-09T23:57:54.077Z,20.90
